createdAt,value
2018-11-29T00:00:45.027Z,3.83
2018-11-29T00:03:13.044Z,4.37
2018-11-29T00:05:41.318Z,3.50
2018-11-29T00:08:09.312Z,3.60
2018-11-29T00:10:37.316Z,3.47
2018-11-29T00:13:05.435Z,3.10
2018-11-29T00:15:33.806Z,3.17
2018-11-29T00:18:01.888Z,2.90
2018-11-29T00:20:29.955Z,3.50
2018-11-29T00:22:57.963Z,3.00
2018-11-29T00:25:25.955Z,3.03
2018-11-29T00:27:53.959Z,3.37
2018-11-29T00:30:23.143Z,3.50
2018-11-29T00:32:54.766Z,2.93
2018-11-29T00:35:22.769Z,3.10
2018-11-29T00:37:50.772Z,2.40
2018-11-29T00:40:20.716Z,3.17
2018-11-29T00:42:48.769Z,3.30
2018-11-29T00:45:19.611Z,3.23
2018-11-29T00:47:47.908Z,3.17
2018-11-29T00:50:16.586Z,2.70
2018-11-29T00:52:45.370Z,3.77
2018-11-29T00:55:15.400Z,3.33
2018-11-29T00:57:43.427Z,2.90
2018-11-29T01:00:16.283Z,2.93
2018-11-29T01:02:44.278Z,2.57
2018-11-29T01:05:12.305Z,2.80
2018-11-29T01:07:40.400Z,2.60
2018-11-29T01:10:11.591Z,3.00
2018-11-29T01:12:39.636Z,2.93
2018-11-29T01:15:10.533Z,3.10
2018-11-29T01:17:38.629Z,2.87
2018-11-29T01:20:10.840Z,2.60
2018-11-29T01:22:38.828Z,2.77
2018-11-29T01:25:09.151Z,3.30
2018-11-29T01:27:37.210Z,3.13
2018-11-29T01:30:07.827Z,3.13
2018-11-29T01:32:35.810Z,3.13
2018-11-29T01:35:03.824Z,3.23
2018-11-29T01:37:31.840Z,3.13
2018-11-29T01:39:59.854Z,3.23
2018-11-29T01:42:27.867Z,3.40
2018-11-29T01:44:55.896Z,3.90
2018-11-29T01:47:23.896Z,3.37
2018-11-29T01:49:51.883Z,4.27
2018-11-29T01:52:19.872Z,3.20
2018-11-29T01:54:47.888Z,3.80
2018-11-29T01:57:15.894Z,3.77
2018-11-29T01:59:43.956Z,3.27
2018-11-29T02:02:11.945Z,4.03
2018-11-29T02:04:39.945Z,4.10
2018-11-29T02:07:07.971Z,4.00
2018-11-29T02:09:35.988Z,4.33
2018-11-29T02:12:03.997Z,3.30
2018-11-29T02:14:31.974Z,4.13
2018-11-29T02:16:59.976Z,4.67
2018-11-29T02:19:28.074Z,3.83
2018-11-29T02:21:56.062Z,4.27
2018-11-29T02:24:24.025Z,3.60
2018-11-29T02:26:52.017Z,3.93
2018-11-29T02:29:19.992Z,4.10
2018-11-29T02:31:48.000Z,3.70
2018-11-29T02:34:16.004Z,3.87
2018-11-29T02:36:43.985Z,4.63
2018-11-29T02:39:11.977Z,4.53
2018-11-29T02:41:40.030Z,4.30
2018-11-29T02:44:08.037Z,4.23
2018-11-29T02:46:36.057Z,3.97
2018-11-29T02:49:04.037Z,3.70
2018-11-29T02:51:32.037Z,4.30
2018-11-29T02:54:00.029Z,4.47
2018-11-29T02:56:28.029Z,4.33
2018-11-29T02:58:56.055Z,3.97
2018-11-29T03:01:24.041Z,3.87
2018-11-29T03:03:52.029Z,3.87
2018-11-29T03:06:20.033Z,3.60
2018-11-29T03:08:48.021Z,3.63
2018-11-29T03:11:16.033Z,3.57
2018-11-29T03:13:44.012Z,3.23
2018-11-29T03:16:12.650Z,3.10
2018-11-29T03:18:40.052Z,3.33
2018-11-29T03:21:08.048Z,3.07
2018-11-29T03:23:36.029Z,3.23
2018-11-29T03:26:04.324Z,2.73
2018-11-29T03:28:32.292Z,2.53
2018-11-29T03:31:00.311Z,2.83
2018-11-29T03:33:28.350Z,2.17
2018-11-29T03:35:56.350Z,2.70
2018-11-29T03:38:24.344Z,2.90
2018-11-29T03:40:52.901Z,2.40
2018-11-29T03:43:20.906Z,2.30
2018-11-29T03:45:48.880Z,2.40
2018-11-29T03:48:16.877Z,2.47
2018-11-29T03:50:44.877Z,2.50
2018-11-29T03:53:12.882Z,2.50
2018-11-29T03:55:40.877Z,2.33
2018-11-29T03:58:08.864Z,2.47
2018-11-29T04:00:36.839Z,2.67
2018-11-29T04:03:05.793Z,2.60
2018-11-29T04:05:33.797Z,2.50
2018-11-29T04:08:01.829Z,2.50
2018-11-29T04:10:29.809Z,2.00
2018-11-29T04:12:57.816Z,2.57
2018-11-29T04:15:25.827Z,2.20
2018-11-29T04:17:53.837Z,2.10
2018-11-29T04:20:21.845Z,2.23
2018-11-29T04:22:49.842Z,1.90
2018-11-29T04:25:17.818Z,2.10
2018-11-29T04:27:45.812Z,2.70
2018-11-29T04:30:14.689Z,2.47
2018-11-29T04:32:42.707Z,3.03
2018-11-29T04:35:11.029Z,2.57
2018-11-29T04:37:39.312Z,2.30
2018-11-29T04:40:12.516Z,2.13
2018-11-29T04:42:40.505Z,2.00
2018-11-29T04:45:11.438Z,2.00
2018-11-29T04:47:39.428Z,2.50
2018-11-29T04:50:07.596Z,2.00
2018-11-29T04:52:35.835Z,2.13
2018-11-29T04:55:03.847Z,2.13
2018-11-29T04:57:31.888Z,1.97
2018-11-29T05:00:00.133Z,2.27
2018-11-29T05:02:28.129Z,2.40
2018-11-29T05:04:56.132Z,2.17
2018-11-29T05:07:24.146Z,2.43
2018-11-29T05:09:52.195Z,2.13
2018-11-29T05:12:20.258Z,2.10
2018-11-29T05:14:48.258Z,2.10
2018-11-29T05:17:16.265Z,2.40
2018-11-29T05:19:44.244Z,1.70
2018-11-29T05:22:12.236Z,2.10
2018-11-29T05:24:40.241Z,2.20
2018-11-29T05:27:08.229Z,2.10
2018-11-29T05:29:36.225Z,2.13
2018-11-29T05:32:04.284Z,2.23
2018-11-29T05:34:32.282Z,2.07
2018-11-29T05:37:00.273Z,2.20
2018-11-29T05:39:28.268Z,2.50
2018-11-29T05:41:56.295Z,2.17
2018-11-29T05:44:24.289Z,2.10
2018-11-29T05:46:52.291Z,2.17
2018-11-29T05:49:20.341Z,2.03
2018-11-29T05:51:48.342Z,2.10
2018-11-29T05:54:16.316Z,2.10
2018-11-29T05:56:44.316Z,2.70
2018-11-29T05:59:13.469Z,2.70
2018-11-29T06:01:42.536Z,2.23
2018-11-29T06:04:10.515Z,2.50
2018-11-29T06:06:38.670Z,2.95
2018-11-29T06:09:08.671Z,2.80
2018-11-29T06:11:37.463Z,2.73
2018-11-29T06:14:06.825Z,2.40
2018-11-29T06:16:35.602Z,2.70
2018-11-29T06:19:03.947Z,2.80
2018-11-29T06:21:32.044Z,3.13
2018-11-29T06:24:00.088Z,2.77
2018-11-29T06:26:28.120Z,3.00
2018-11-29T06:28:56.105Z,2.73
2018-11-29T06:31:24.124Z,3.17
2018-11-29T06:33:52.425Z,3.30
2018-11-29T06:36:20.436Z,3.47
2018-11-29T06:38:48.484Z,3.40
2018-11-29T06:41:16.488Z,3.07
2018-11-29T06:43:44.588Z,3.43
2018-11-29T06:46:12.592Z,2.97
2018-11-29T06:48:40.631Z,3.50
2018-11-29T06:51:08.621Z,3.10
2018-11-29T06:53:42.160Z,4.03
2018-11-29T06:56:19.276Z,3.10
2018-11-29T06:58:47.422Z,3.40
2018-11-29T07:01:16.378Z,4.00
2018-11-29T07:03:44.435Z,3.57
2018-11-29T07:06:12.416Z,3.33
2018-11-29T07:08:40.392Z,3.40
2018-11-29T07:11:08.445Z,3.53
2018-11-29T07:13:36.478Z,3.27
2018-11-29T07:16:04.500Z,3.37
2018-11-29T07:18:32.542Z,4.23
2018-11-29T07:21:11.603Z,3.80
2018-11-29T07:23:39.593Z,3.80
2018-11-29T07:26:07.577Z,3.77
2018-11-29T07:28:35.583Z,3.47
2018-11-29T07:31:03.584Z,3.70
2018-11-29T07:33:31.581Z,3.90
2018-11-29T07:35:59.630Z,3.40
2018-11-29T07:38:27.634Z,3.37
2018-11-29T07:40:55.655Z,3.00
2018-11-29T07:43:23.737Z,3.40
2018-11-29T07:45:51.745Z,3.37
2018-11-29T07:48:19.760Z,3.73
2018-11-29T07:50:47.872Z,3.20
2018-11-29T07:53:16.318Z,4.37
2018-11-29T07:55:43.892Z,3.53
2018-11-29T07:58:11.909Z,3.50
2018-11-29T08:00:39.912Z,4.90
2018-11-29T08:03:07.923Z,4.27
2018-11-29T08:05:36.000Z,3.77
2018-11-29T08:08:04.289Z,4.73
2018-11-29T08:10:32.289Z,3.83
2018-11-29T08:13:00.343Z,3.90
2018-11-29T08:15:28.352Z,3.70
2018-11-29T08:17:56.335Z,3.70
2018-11-29T08:20:24.365Z,4.40
2018-11-29T08:22:52.384Z,4.87
2018-11-29T08:25:20.458Z,4.87
2018-11-29T08:27:48.435Z,4.30
2018-11-29T08:30:16.552Z,4.30
2018-11-29T08:32:44.543Z,5.60
2018-11-29T08:35:13.403Z,6.13
2018-11-29T08:37:42.795Z,4.87
2018-11-29T08:40:16.058Z,5.53
2018-11-29T08:42:44.040Z,6.53
2018-11-29T08:45:12.084Z,5.70
2018-11-29T08:47:40.117Z,6.47
2018-11-29T08:50:11.176Z,5.27
2018-11-29T08:52:39.711Z,5.73
2018-11-29T08:55:10.830Z,5.10
2018-11-29T08:57:38.890Z,5.33
2018-11-29T09:00:10.988Z,6.23
2018-11-29T09:02:39.031Z,8.07
2018-11-29T09:05:07.782Z,10.57
2018-11-29T09:07:35.781Z,11.00
2018-11-29T09:10:04.189Z,11.87
2018-11-29T09:12:32.192Z,11.73
2018-11-29T09:15:00.270Z,9.77
2018-11-29T09:17:28.285Z,8.17
2018-11-29T09:19:56.265Z,7.90
2018-11-29T09:22:24.253Z,7.83
2018-11-29T09:24:52.257Z,6.17
2018-11-29T09:27:34.927Z,5.70
2018-11-29T09:30:03.002Z,4.77
2018-11-29T09:32:31.005Z,4.00
2018-11-29T09:34:58.985Z,4.30
2018-11-29T09:37:26.986Z,4.50
2018-11-29T09:39:54.997Z,3.90
2018-11-29T09:42:22.996Z,3.63
2018-11-29T09:44:51.100Z,2.83
2018-11-29T09:47:19.108Z,2.73
2018-11-29T09:49:47.180Z,3.07
2018-11-29T09:52:15.317Z,2.47
2018-11-29T09:54:43.302Z,2.70
2018-11-29T09:57:11.320Z,3.13
2018-11-29T09:59:39.345Z,2.80
2018-11-29T10:02:07.341Z,3.23
2018-11-29T10:04:35.324Z,2.83
2018-11-29T10:07:03.342Z,2.50
2018-11-29T10:09:31.314Z,3.17
2018-11-29T10:11:59.371Z,2.70
2018-11-29T10:14:27.408Z,1.90
2018-11-29T10:16:55.392Z,2.60
2018-11-29T10:19:23.380Z,2.67
2018-11-29T10:21:51.401Z,2.17
2018-11-29T10:24:19.365Z,2.53
2018-11-29T10:26:47.336Z,2.67
2018-11-29T10:29:15.380Z,2.00
2018-11-29T10:31:43.405Z,2.50
2018-11-29T10:34:11.385Z,2.20
2018-11-29T10:36:39.369Z,2.50
2018-11-29T10:39:08.260Z,2.10
2018-11-29T10:41:36.292Z,2.70
2018-11-29T10:44:04.323Z,2.33
2018-11-29T10:46:32.328Z,2.30
2018-11-29T10:49:00.321Z,2.50
2018-11-29T10:51:28.349Z,2.60
2018-11-29T10:53:56.384Z,2.10
2018-11-29T10:56:24.391Z,2.47
2018-11-29T10:58:52.482Z,1.90
2018-11-29T11:01:25.920Z,2.30
2018-11-29T11:03:53.968Z,2.77
2018-11-29T11:06:22.996Z,2.73
2018-11-29T11:08:51.093Z,1.97
2018-11-29T11:11:19.088Z,2.57
2018-11-29T11:13:47.091Z,2.70
2018-11-29T11:16:15.181Z,2.60
2018-11-29T11:18:43.220Z,2.50
2018-11-29T11:21:11.221Z,3.53
2018-11-29T11:23:39.296Z,2.23
2018-11-29T11:26:07.318Z,1.97
2018-11-29T11:28:35.442Z,2.57
2018-11-29T11:31:03.466Z,2.80
2018-11-29T11:33:31.471Z,2.63
2018-11-29T11:35:59.488Z,2.50
2018-11-29T11:38:27.481Z,2.30
2018-11-29T11:40:55.457Z,2.30
2018-11-29T11:43:23.488Z,2.30
2018-11-29T11:45:52.107Z,2.77
2018-11-29T11:48:20.164Z,2.37
2018-11-29T11:50:48.173Z,2.47
2018-11-29T11:53:16.152Z,2.33
2018-11-29T11:55:44.220Z,3.10
2018-11-29T11:58:12.201Z,3.37
2018-11-29T12:00:40.309Z,2.73
2018-11-29T12:03:12.766Z,3.07
2018-11-29T12:05:40.931Z,2.60
2018-11-29T12:08:08.968Z,2.50
2018-11-29T12:10:37.556Z,2.20
2018-11-29T12:13:06.353Z,3.10
2018-11-29T12:15:34.594Z,2.30
2018-11-29T12:18:02.693Z,2.40
2018-11-29T12:20:30.745Z,2.40
2018-11-29T12:22:58.741Z,2.77
2018-11-29T12:25:26.803Z,2.03
2018-11-29T12:27:54.766Z,2.70
2018-11-29T12:30:26.945Z,2.63
2018-11-29T12:32:58.116Z,2.90
2018-11-29T12:35:26.134Z,2.33
2018-11-29T12:37:54.306Z,3.00
2018-11-29T12:40:22.397Z,2.50
2018-11-29T12:42:50.441Z,2.67
2018-11-29T12:45:18.429Z,2.83
2018-11-29T12:47:46.449Z,3.80
2018-11-29T12:50:15.493Z,3.60
2018-11-29T12:52:43.478Z,3.03
2018-11-29T12:55:12.348Z,2.53
2018-11-29T12:57:42.102Z,2.40
2018-11-29T13:00:14.148Z,2.80
2018-11-29T13:02:47.326Z,2.53
2018-11-29T13:05:15.344Z,2.23
2018-11-29T13:07:43.531Z,2.00
2018-11-29T13:10:12.039Z,2.30
2018-11-29T13:12:40.025Z,2.50
2018-11-29T13:15:11.099Z,2.60
2018-11-29T13:17:39.094Z,2.73
2018-11-29T13:20:12.511Z,2.83
2018-11-29T13:22:40.492Z,3.60
2018-11-29T13:25:11.124Z,2.43
2018-11-29T13:27:39.120Z,2.50
2018-11-29T13:30:11.267Z,2.80
2018-11-29T13:32:39.304Z,3.03
2018-11-29T13:35:16.817Z,3.43
2018-11-29T13:37:53.511Z,3.30
2018-11-29T13:40:21.530Z,3.00
2018-11-29T13:42:49.583Z,3.07
2018-11-29T13:45:17.583Z,2.33
2018-11-29T13:47:45.630Z,2.17
2018-11-29T13:50:15.596Z,1.97
2018-11-29T13:52:43.682Z,2.70
2018-11-29T13:55:12.553Z,2.80
2018-11-29T13:57:41.448Z,2.73
2018-11-29T14:00:13.672Z,2.57
2018-11-29T14:02:41.788Z,2.77
2018-11-29T14:05:10.428Z,2.10
2018-11-29T14:07:38.800Z,2.30
2018-11-29T14:10:09.646Z,2.80
2018-11-29T14:12:37.640Z,3.00
2018-11-29T14:15:08.460Z,2.87
2018-11-29T14:17:36.444Z,3.13
2018-11-29T14:20:05.040Z,2.50
2018-11-29T14:22:33.036Z,2.87
2018-11-29T14:25:01.044Z,2.40
2018-11-29T14:27:29.381Z,2.20
2018-11-29T14:29:57.389Z,2.70
2018-11-29T14:32:25.442Z,2.70
2018-11-29T14:34:53.558Z,3.23
2018-11-29T14:37:21.560Z,3.43
2018-11-29T14:39:49.582Z,3.17
2018-11-29T14:42:17.580Z,3.87
2018-11-29T14:44:45.809Z,2.87
2018-11-29T14:47:13.808Z,2.80
2018-11-29T14:49:41.954Z,2.80
2018-11-29T14:52:09.941Z,3.37
2018-11-29T14:54:37.932Z,4.17
2018-11-29T14:57:05.928Z,2.97
2018-11-29T14:59:33.968Z,3.27
2018-11-29T15:02:02.057Z,3.00
2018-11-29T15:04:30.056Z,3.43
2018-11-29T15:06:58.074Z,3.33
2018-11-29T15:09:26.097Z,3.40
2018-11-29T15:11:54.128Z,3.30
2018-11-29T15:14:22.102Z,3.30
2018-11-29T15:16:50.093Z,3.60
2018-11-29T15:19:18.105Z,3.43
2018-11-29T15:21:46.144Z,3.80
2018-11-29T15:24:14.146Z,2.73
2018-11-29T15:26:42.189Z,3.07
2018-11-29T15:29:11.262Z,2.90
2018-11-29T15:31:39.249Z,2.97
2018-11-29T15:34:07.236Z,2.67
2018-11-29T15:36:35.252Z,2.93
2018-11-29T15:39:04.142Z,3.00
2018-11-29T15:41:32.173Z,2.97
2018-11-29T15:44:00.194Z,3.33
2018-11-29T15:46:28.232Z,3.27
2018-11-29T15:48:56.215Z,3.80
2018-11-29T15:51:24.184Z,3.37
2018-11-29T15:53:52.189Z,2.73
2018-11-29T15:56:27.182Z,2.90
2018-11-29T15:58:56.495Z,2.90
2018-11-29T16:01:24.859Z,3.47
2018-11-29T16:03:55.840Z,3.40
2018-11-29T16:06:26.027Z,4.37
2018-11-29T16:08:54.525Z,3.87
2018-11-29T16:11:23.304Z,3.27
2018-11-29T16:13:54.638Z,4.20
2018-11-29T16:16:23.023Z,4.20
2018-11-29T16:18:51.028Z,4.13
2018-11-29T16:21:19.573Z,3.57
2018-11-29T16:23:47.832Z,5.13
2018-11-29T16:26:16.247Z,4.40
2018-11-29T16:28:44.568Z,4.07
2018-11-29T16:31:12.889Z,4.00
2018-11-29T16:33:41.506Z,4.43
2018-11-29T16:36:10.526Z,4.27
2018-11-29T16:38:38.811Z,3.57
2018-11-29T16:41:06.957Z,4.17
2018-11-29T16:43:36.892Z,4.53
2018-11-29T16:46:05.125Z,4.70
2018-11-29T16:48:33.251Z,3.47
2018-11-29T16:51:01.403Z,4.37
2018-11-29T16:53:29.537Z,4.37
2018-11-29T16:55:57.570Z,4.70
2018-11-29T16:58:27.329Z,5.60
2018-11-29T17:00:55.456Z,6.67
2018-11-29T17:03:23.528Z,7.67
2018-11-29T17:05:51.540Z,6.37
2018-11-29T17:08:19.544Z,5.63
2018-11-29T17:10:47.559Z,5.50
2018-11-29T17:13:16.960Z,6.17
2018-11-29T17:15:44.980Z,5.40
2018-11-29T17:18:12.979Z,6.13
2018-11-29T17:20:41.131Z,5.93
2018-11-29T17:23:10.329Z,7.27
2018-11-29T17:25:38.316Z,7.80
2018-11-29T17:28:06.736Z,6.60
2018-11-29T17:30:35.141Z,7.63
2018-11-29T17:33:03.140Z,6.97
2018-11-29T17:35:31.133Z,6.37
2018-11-29T17:37:59.798Z,6.90
2018-11-29T17:40:27.789Z,7.40
2018-11-29T17:42:59.392Z,6.40
2018-11-29T17:45:28.420Z,7.10
2018-11-29T17:47:57.887Z,7.50
2018-11-29T17:50:30.012Z,7.60
2018-11-29T17:52:58.009Z,8.83
2018-11-29T17:55:26.018Z,7.87
2018-11-29T17:57:54.013Z,8.63
2018-11-29T18:00:37.781Z,10.43
2018-11-29T18:03:06.954Z,13.63
2018-11-29T18:05:34.959Z,10.33
2018-11-29T18:08:02.958Z,11.63
2018-11-29T18:10:32.832Z,15.30
2018-11-29T18:13:13.063Z,13.00
2018-11-29T18:15:41.171Z,20.90
2018-11-29T18:18:09.210Z,27.00
2018-11-29T18:20:37.382Z,22.60
2018-11-29T18:23:06.180Z,17.63
2018-11-29T18:25:34.177Z,20.30
2018-11-29T18:28:02.348Z,18.43
2018-11-29T18:30:30.388Z,18.60
2018-11-29T18:32:58.398Z,17.77
2018-11-29T18:35:26.473Z,20.97
2018-11-29T18:37:54.472Z,26.57
2018-11-29T18:40:22.563Z,19.93
2018-11-29T18:42:55.801Z,20.47
2018-11-29T18:45:23.831Z,25.17
2018-11-29T18:47:52.520Z,28.83
2018-11-29T18:50:21.412Z,26.70
2018-11-29T18:52:49.439Z,31.93
2018-11-29T18:55:17.554Z,33.40
2018-11-29T18:57:45.866Z,33.50
2018-11-29T19:00:21.988Z,30.33
2018-11-29T19:02:49.972Z,22.97
2018-11-29T19:05:17.972Z,25.27
2018-11-29T19:07:46.005Z,28.40
2018-11-29T19:10:16.184Z,25.17
2018-11-29T19:12:57.419Z,27.67
2018-11-29T19:15:25.513Z,28.03
2018-11-29T19:17:53.564Z,24.03
2018-11-29T19:20:21.541Z,30.33
2018-11-29T19:22:49.516Z,28.50
2018-11-29T19:25:18.377Z,25.77
2018-11-29T19:27:46.602Z,23.53
2018-11-29T19:30:23.488Z,26.27
2018-11-29T19:32:55.085Z,25.50
2018-11-29T19:35:23.177Z,24.10
2018-11-29T19:37:51.112Z,21.97
2018-11-29T19:40:20.112Z,29.67
2018-11-29T19:42:49.074Z,25.17
2018-11-29T19:45:17.089Z,23.10
2018-11-29T19:47:45.080Z,23.90
2018-11-29T19:50:16.037Z,25.03
2018-11-29T19:52:45.268Z,24.73
2018-11-29T19:55:15.011Z,28.47
2018-11-29T19:57:43.027Z,32.17
2018-11-29T20:00:12.053Z,36.10
2018-11-29T20:02:40.231Z,34.03
2018-11-29T20:05:09.654Z,31.13
2018-11-29T20:07:37.637Z,34.93
2018-11-29T20:10:11.500Z,34.93
2018-11-29T20:12:39.573Z,32.73
2018-11-29T20:15:20.155Z,30.63
2018-11-29T20:17:48.161Z,38.67
2018-11-29T20:20:16.182Z,37.87
2018-11-29T20:22:44.156Z,35.27
2018-11-29T20:25:15.384Z,43.83
2018-11-29T20:27:43.521Z,55.73
2018-11-29T20:30:12.869Z,55.97
2018-11-29T20:32:40.984Z,45.97
2018-11-29T20:35:09.513Z,41.17
2018-11-29T20:37:37.532Z,36.20
2018-11-29T20:40:14.371Z,30.83
2018-11-29T20:42:42.431Z,31.77
2018-11-29T20:45:14.195Z,35.77
2018-11-29T20:47:42.335Z,33.70
2018-11-29T20:50:14.688Z,34.67
2018-11-29T20:52:40.100Z,35.30
2018-11-29T20:55:12.700Z,37.13
2018-11-29T20:57:40.696Z,41.50
2018-11-29T21:00:11.396Z,48.00
2018-11-29T21:02:39.531Z,52.33
2018-11-29T21:05:09.198Z,55.87
2018-11-29T21:07:37.212Z,49.50
2018-11-29T21:10:11.420Z,44.13
2018-11-29T21:12:39.497Z,37.03
2018-11-29T21:15:07.513Z,34.83
2018-11-29T21:17:35.630Z,34.43
2018-11-29T21:20:04.287Z,34.90
2018-11-29T21:22:32.270Z,37.17
2018-11-29T21:25:00.408Z,37.40
2018-11-29T21:27:28.405Z,35.07
2018-11-29T21:29:56.412Z,38.90
2018-11-29T21:32:24.420Z,35.00
2018-11-29T21:34:52.851Z,36.40
2018-11-29T21:37:21.047Z,36.00
2018-11-29T21:39:49.078Z,35.60
2018-11-29T21:42:17.095Z,34.63
2018-11-29T21:44:45.110Z,37.57
2018-11-29T21:47:13.093Z,54.90
2018-11-29T21:49:41.093Z,47.50
2018-11-29T21:52:09.114Z,41.97
2018-11-29T21:54:37.107Z,35.57
2018-11-29T21:57:05.104Z,38.10
2018-11-29T21:59:35.520Z,41.37
2018-11-29T22:02:01.120Z,42.27
2018-11-29T22:04:29.366Z,38.40
2018-11-29T22:06:57.361Z,34.43
2018-11-29T22:09:25.363Z,33.90
2018-11-29T22:11:53.613Z,35.67
2018-11-29T22:14:21.957Z,34.10
2018-11-29T22:16:49.944Z,35.67
2018-11-29T22:19:17.941Z,38.17
2018-11-29T22:21:46.018Z,40.77
2018-11-29T22:24:14.036Z,36.37
2018-11-29T22:26:42.016Z,47.13
2018-11-29T22:29:10.001Z,37.90
2018-11-29T22:31:38.019Z,39.07
2018-11-29T22:34:06.221Z,32.87
2018-11-29T22:36:34.265Z,34.20
2018-11-29T22:39:02.306Z,28.60
2018-11-29T22:41:30.300Z,24.83
2018-11-29T22:43:58.320Z,27.77
2018-11-29T22:46:26.344Z,21.93
2018-11-29T22:48:54.344Z,22.50
2018-11-29T22:51:22.425Z,21.60
2018-11-29T22:53:50.433Z,21.50
2018-11-29T22:56:18.416Z,20.57
2018-11-29T22:58:46.483Z,21.33
2018-11-29T23:01:19.980Z,19.70
2018-11-29T23:03:47.995Z,23.13
2018-11-29T23:06:16.005Z,24.37
2018-11-29T23:08:43.984Z,22.63
2018-11-29T23:11:11.992Z,22.17
2018-11-29T23:13:39.984Z,20.27
2018-11-29T23:16:07.992Z,21.93
2018-11-29T23:18:35.969Z,20.47
2018-11-29T23:21:03.997Z,19.73
2018-11-29T23:23:32.005Z,20.43
2018-11-29T23:25:59.986Z,19.23
2018-11-29T23:28:28.068Z,16.90
2018-11-29T23:30:56.056Z,18.23
2018-11-29T23:33:24.033Z,16.27
2018-11-29T23:35:52.125Z,18.60
2018-11-29T23:38:20.118Z,16.13
2018-11-29T23:40:48.194Z,15.67
2018-11-29T23:43:16.221Z,14.93
2018-11-29T23:45:44.252Z,15.30
2018-11-29T23:48:12.257Z,12.93
2018-11-29T23:50:40.340Z,14.43
2018-11-29T23:53:08.386Z,12.17
2018-11-29T23:55:36.403Z,11.07
2018-11-29T23:58:04.392Z,11.20
